createdAt,value
2022-09-03T00:00:55.584Z,54.68
2022-09-03T00:01:55.649Z,54.17
2022-09-03T00:02:55.572Z,54.35
2022-09-03T00:03:55.489Z,54.15
2022-09-03T00:04:55.434Z,53.85
2022-09-03T00:05:55.397Z,54.48
2022-09-03T00:06:55.359Z,54.58
2022-09-03T00:07:55.330Z,54.25
2022-09-03T00:08:55.298Z,54.02
2022-09-03T00:09:55.247Z,54.13
2022-09-03T00:10:55.210Z,54.05
2022-09-03T00:11:55.172Z,53.95
2022-09-03T00:12:55.136Z,53.92
2022-09-03T00:13:55.105Z,53.85
2022-09-03T00:14:55.071Z,54.05
2022-09-03T00:15:55.093Z,54.96
2022-09-03T00:16:54.988Z,54.17
2022-09-03T00:17:54.943Z,54.58
2022-09-03T00:18:54.910Z,54.35
2022-09-03T00:19:54.873Z,54.55
2022-09-03T00:20:54.847Z,53.67
2022-09-03T00:21:54.798Z,54.25
2022-09-03T00:22:54.762Z,54.38
2022-09-03T00:23:54.723Z,54.65
2022-09-03T00:24:54.687Z,54.45
2022-09-03T00:25:54.659Z,54.15
2022-09-03T00:26:54.612Z,55.16
2022-09-03T00:27:54.574Z,54.25
2022-09-03T00:28:54.537Z,54.55
2022-09-03T00:29:54.500Z,55.16
2022-09-03T00:30:54.522Z,54.58
2022-09-03T00:31:54.429Z,54.38
2022-09-03T00:32:54.393Z,54.98
2022-09-03T00:33:54.355Z,54.88
2022-09-03T00:34:54.311Z,54.48
2022-09-03T00:35:54.285Z,54.88
2022-09-03T00:36:54.234Z,55.48
2022-09-03T00:37:54.202Z,54.58
2022-09-03T00:38:54.179Z,54.48
2022-09-03T00:39:54.179Z,54.78
2022-09-03T00:40:54.089Z,54.98
2022-09-03T00:41:54.052Z,54.88
2022-09-03T00:42:54.010Z,54.88
2022-09-03T00:43:53.973Z,54.88
2022-09-03T00:44:53.951Z,54.88
2022-09-03T00:45:53.997Z,54.68
2022-09-03T00:46:53.861Z,54.38
2022-09-03T00:47:53.827Z,54.68
2022-09-03T00:48:53.801Z,54.28
2022-09-03T00:49:53.751Z,54.78
2022-09-03T00:50:53.714Z,54.55
2022-09-03T00:51:53.676Z,54.48
2022-09-03T00:52:53.643Z,54.88
2022-09-03T00:53:53.609Z,54.68
2022-09-03T00:54:53.571Z,54.98
2022-09-03T00:55:53.526Z,54.58
2022-09-03T00:56:53.493Z,55.18
2022-09-03T00:57:53.457Z,55.18
2022-09-03T00:58:53.414Z,55.28
2022-09-03T00:59:53.390Z,55.08
2022-09-03T01:00:53.341Z,54.48
2022-09-03T01:01:53.376Z,54.48
2022-09-03T01:02:53.295Z,54.98
2022-09-03T01:03:53.229Z,55.68
2022-09-03T01:04:53.193Z,55.18
2022-09-03T01:05:53.161Z,55.61
2022-09-03T01:06:53.113Z,54.68
2022-09-03T01:07:53.080Z,55.38
2022-09-03T01:08:53.041Z,55.21
2022-09-03T01:09:53.002Z,55.68
2022-09-03T01:10:52.977Z,55.88
2022-09-03T01:11:52.935Z,55.81
2022-09-03T01:12:52.895Z,55.31
2022-09-03T01:13:52.858Z,55.91
2022-09-03T01:14:52.816Z,55.51
2022-09-03T01:15:52.843Z,55.18
2022-09-03T01:16:52.749Z,56.21
2022-09-03T01:17:52.714Z,55.71
2022-09-03T01:18:52.663Z,55.81
2022-09-03T01:19:52.635Z,56.01
2022-09-03T01:20:52.591Z,56.11
2022-09-03T01:21:52.554Z,55.71
2022-09-03T01:22:52.515Z,56.01
2022-09-03T01:23:52.492Z,55.91
2022-09-03T01:24:52.439Z,56.01
2022-09-03T01:25:52.405Z,55.61
2022-09-03T01:26:52.376Z,56.11
2022-09-03T01:27:52.331Z,55.61
2022-09-03T01:28:52.290Z,55.21
2022-09-03T01:29:52.270Z,55.91
2022-09-03T01:30:52.235Z,55.91
2022-09-03T01:31:52.181Z,55.61
2022-09-03T01:32:52.140Z,56.51
2022-09-03T01:33:52.105Z,55.31
2022-09-03T01:34:52.077Z,55.51
2022-09-03T01:35:52.029Z,54.60
2022-09-03T01:36:51.991Z,55.38
2022-09-03T01:37:51.956Z,55.99
2022-09-03T01:38:51.914Z,55.28
2022-09-03T01:39:51.938Z,54.98
2022-09-03T01:40:51.841Z,55.71
2022-09-03T01:41:51.809Z,55.91
2022-09-03T01:43:02.151Z,56.41
2022-09-03T01:43:51.729Z,55.81
2022-09-03T01:44:52.987Z,55.41
2022-09-03T01:45:52.389Z,56.31
2022-09-03T01:46:51.666Z,55.74
2022-09-03T01:47:51.590Z,56.11
2022-09-03T01:48:51.539Z,56.11
2022-09-03T01:49:51.503Z,56.21
2022-09-03T01:50:51.466Z,56.44
2022-09-03T01:51:51.429Z,56.44
2022-09-03T01:52:51.390Z,56.14
2022-09-03T01:53:51.366Z,56.14
2022-09-03T01:54:51.319Z,56.64
2022-09-03T01:55:51.278Z,56.84
2022-09-03T01:56:51.237Z,55.83
2022-09-03T01:57:51.202Z,55.31
2022-09-03T01:58:51.163Z,56.44
2022-09-03T01:59:51.137Z,56.54
2022-09-03T02:00:51.091Z,56.64
2022-09-03T02:01:51.099Z,56.44
2022-09-03T02:02:51.151Z,56.64
2022-09-03T02:03:50.984Z,56.95
2022-09-03T02:04:50.944Z,56.87
2022-09-03T02:05:50.915Z,57.07
2022-09-03T02:06:50.863Z,56.16
2022-09-03T02:07:50.828Z,56.95
2022-09-03T02:08:50.789Z,56.64
2022-09-03T02:09:50.762Z,56.34
2022-09-03T02:10:50.713Z,56.44
2022-09-03T02:11:50.677Z,56.95
2022-09-03T02:12:50.679Z,56.44
2022-09-03T02:13:50.602Z,56.95
2022-09-03T02:14:50.561Z,57.35
2022-09-03T02:15:50.622Z,57.24
2022-09-03T02:16:50.486Z,57.35
2022-09-03T02:17:50.555Z,56.74
2022-09-03T02:18:50.414Z,57.07
2022-09-03T02:19:50.374Z,57.45
2022-09-03T02:20:50.341Z,57.04
2022-09-03T02:21:50.302Z,57.37
2022-09-03T02:22:50.260Z,57.37
2022-09-03T02:23:50.233Z,58.18
2022-09-03T02:24:50.187Z,57.28
2022-09-03T02:25:50.149Z,58.61
2022-09-03T02:26:50.113Z,58.41
2022-09-03T02:27:50.075Z,57.40
2022-09-03T02:28:50.050Z,58.38
2022-09-03T02:29:49.997Z,57.88
2022-09-03T02:30:50.015Z,57.28
2022-09-03T02:31:49.922Z,57.07
2022-09-03T02:32:49.883Z,56.77
2022-09-03T02:33:49.847Z,57.75
2022-09-03T02:34:49.823Z,56.97
2022-09-03T02:35:49.774Z,58.28
2022-09-03T02:36:49.735Z,57.68
2022-09-03T02:37:49.698Z,57.68
2022-09-03T02:38:49.657Z,57.07
2022-09-03T02:39:49.666Z,57.78
2022-09-03T02:40:49.595Z,57.81
2022-09-03T02:41:49.548Z,56.84
2022-09-03T02:42:49.510Z,57.35
2022-09-03T02:43:49.472Z,57.85
2022-09-03T02:44:49.430Z,57.78
2022-09-03T02:45:49.417Z,57.68
2022-09-03T02:46:49.382Z,58.28
2022-09-03T02:47:49.319Z,58.07
2022-09-03T02:48:49.280Z,58.21
2022-09-03T02:49:49.244Z,58.28
2022-09-03T02:50:49.221Z,58.51
2022-09-03T02:51:49.174Z,58.38
2022-09-03T02:52:49.139Z,58.91
2022-09-03T02:53:49.095Z,58.61
2022-09-03T02:54:49.053Z,59.31
2022-09-03T02:55:49.017Z,59.52
2022-09-03T02:56:48.981Z,59.01
2022-09-03T02:57:48.953Z,59.14
2022-09-03T02:58:48.902Z,58.71
2022-09-03T02:59:48.868Z,59.34
2022-09-03T03:00:48.831Z,59.14
2022-09-03T03:01:48.803Z,59.14
2022-09-03T03:02:48.777Z,59.04
2022-09-03T03:03:48.728Z,59.34
2022-09-03T03:04:48.677Z,59.11
2022-09-03T03:05:48.639Z,59.11
2022-09-03T03:06:48.602Z,58.81
2022-09-03T03:07:48.564Z,58.91
2022-09-03T03:08:48.529Z,59.04
2022-09-03T03:09:48.503Z,59.14
2022-09-03T03:10:48.450Z,59.24
2022-09-03T03:11:48.413Z,58.94
2022-09-03T03:12:48.374Z,59.75
2022-09-03T03:13:48.338Z,59.55
2022-09-03T03:14:48.300Z,59.34
2022-09-03T03:15:48.279Z,59.24
2022-09-03T03:16:48.420Z,60.08
2022-09-03T03:17:48.187Z,60.45
2022-09-03T03:18:48.147Z,60.68
2022-09-03T03:19:48.110Z,60.58
2022-09-03T03:20:48.073Z,60.48
2022-09-03T03:21:48.047Z,61.08
2022-09-03T03:22:47.998Z,60.68
2022-09-03T03:23:47.960Z,61.08
2022-09-03T03:24:47.923Z,60.98
2022-09-03T03:25:47.886Z,60.78
2022-09-03T03:26:47.846Z,61.01
2022-09-03T03:27:47.822Z,61.29
2022-09-03T03:28:47.770Z,61.18
2022-09-03T03:29:47.746Z,61.39
2022-09-03T03:32:19.746Z,61.08
2022-09-03T03:33:19.707Z,60.08
2022-09-03T03:34:19.663Z,60.88
2022-09-03T03:35:19.638Z,60.88
2022-09-03T03:36:19.582Z,60.48
2022-09-03T03:37:19.545Z,60.38
2022-09-03T03:38:19.521Z,60.05
2022-09-03T03:39:19.508Z,60.25
2022-09-03T03:40:19.430Z,58.94
2022-09-03T03:41:19.408Z,60.35
2022-09-03T03:42:19.356Z,59.84
2022-09-03T03:43:19.318Z,60.55
2022-09-03T03:44:19.279Z,60.25
2022-09-03T03:45:19.246Z,60.45
2022-09-03T03:46:19.257Z,60.65
2022-09-03T03:47:27.928Z,61.39
2022-09-03T03:48:19.161Z,60.96
2022-09-03T03:49:19.101Z,61.18
2022-09-03T03:50:19.054Z,60.58
2022-09-03T03:51:19.019Z,61.39
2022-09-03T03:52:18.987Z,61.39
2022-09-03T03:53:18.942Z,61.59
2022-09-03T03:54:18.898Z,60.98
2022-09-03T03:55:18.876Z,61.49
2022-09-03T03:56:18.823Z,61.08
2022-09-03T03:57:18.788Z,61.08
2022-09-03T03:58:18.756Z,60.38
2022-09-03T03:59:18.725Z,60.65
2022-09-03T04:00:18.666Z,60.75
2022-09-03T04:01:18.681Z,61.05
2022-09-03T04:02:18.641Z,60.75
2022-09-03T04:03:18.557Z,61.08
2022-09-03T04:04:18.529Z,60.85
2022-09-03T04:05:18.506Z,60.98
2022-09-03T04:06:18.442Z,61.08
2022-09-03T04:07:18.403Z,60.98
2022-09-03T04:08:18.369Z,60.68
2022-09-03T04:09:18.329Z,61.18
2022-09-03T04:10:18.305Z,60.48
2022-09-03T04:11:18.254Z,60.98
2022-09-03T04:12:18.220Z,60.88
2022-09-03T04:13:18.181Z,61.18
2022-09-03T04:14:18.142Z,61.56
2022-09-03T04:15:18.846Z,60.98
2022-09-03T04:16:18.131Z,61.39
2022-09-03T04:17:20.990Z,60.78
2022-09-03T04:18:17.990Z,61.39
2022-09-03T04:19:17.953Z,61.52
2022-09-03T04:20:17.916Z,62.43
2022-09-03T04:21:17.876Z,62.02
2022-09-03T04:22:17.848Z,62.73
2022-09-03T04:23:17.798Z,62.02
2022-09-03T04:24:17.758Z,62.96
2022-09-03T04:25:17.722Z,62.96
2022-09-03T04:26:17.684Z,62.43
2022-09-03T04:27:17.650Z,60.71
2022-09-03T04:28:17.618Z,62.63
2022-09-03T04:29:17.571Z,62.83
2022-09-03T04:30:17.533Z,62.43
2022-09-03T04:31:17.546Z,62.65
2022-09-03T04:32:17.473Z,62.65
2022-09-03T04:33:17.417Z,63.06
2022-09-03T04:34:17.383Z,62.73
2022-09-03T04:35:17.346Z,62.45
2022-09-03T04:36:17.306Z,62.02
2022-09-03T04:37:17.270Z,62.43
2022-09-03T04:38:17.240Z,62.22
2022-09-03T04:39:17.235Z,62.73
2022-09-03T04:40:17.150Z,62.83
2022-09-03T04:41:17.114Z,62.63
2022-09-03T04:42:17.076Z,62.22
2022-09-03T04:43:17.039Z,62.32
2022-09-03T04:44:17.008Z,62.05
2022-09-03T04:45:16.961Z,62.43
2022-09-03T04:46:18.438Z,62.35
2022-09-03T04:47:16.886Z,62.85
2022-09-03T04:48:16.849Z,62.85
2022-09-03T04:49:16.810Z,62.55
2022-09-03T04:50:16.781Z,63.06
2022-09-03T04:51:16.734Z,63.16
2022-09-03T04:52:16.690Z,63.06
2022-09-03T04:53:16.658Z,63.36
2022-09-03T04:54:16.619Z,63.26
2022-09-03T04:55:16.581Z,63.36
2022-09-03T04:56:16.586Z,63.16
2022-09-03T04:57:16.507Z,63.96
2022-09-03T04:58:16.569Z,63.56
2022-09-03T04:59:16.431Z,64.17
2022-09-03T05:00:16.392Z,63.36
2022-09-03T05:01:16.386Z,62.55
2022-09-03T05:02:16.361Z,63.46
2022-09-03T05:03:16.278Z,63.26
2022-09-03T05:04:16.238Z,62.73
2022-09-03T05:05:16.200Z,63.53
2022-09-03T05:06:16.163Z,63.43
2022-09-03T05:07:16.128Z,63.26
2022-09-03T05:08:16.201Z,62.55
2022-09-03T05:09:16.050Z,62.85
2022-09-03T05:10:16.012Z,62.52
2022-09-03T05:11:15.974Z,63.23
2022-09-03T05:12:15.948Z,62.93
2022-09-03T05:13:15.897Z,61.92
2022-09-03T05:14:15.877Z,62.93
2022-09-03T05:15:15.833Z,62.73
2022-09-03T05:16:15.870Z,62.43
2022-09-03T05:17:15.762Z,62.83
2022-09-03T05:18:15.765Z,62.63
2022-09-03T05:19:15.669Z,62.22
2022-09-03T05:20:15.632Z,62.22
2022-09-03T05:21:15.596Z,62.22
2022-09-03T05:22:15.568Z,63.13
2022-09-03T05:23:15.517Z,62.60
2022-09-03T05:24:15.479Z,62.22
2022-09-03T05:25:15.460Z,62.60
2022-09-03T05:26:15.402Z,62.73
2022-09-03T05:27:15.366Z,62.52
2022-09-03T05:28:15.417Z,62.90
2022-09-03T05:29:15.294Z,62.49
2022-09-03T05:30:15.250Z,63.00
2022-09-03T05:31:15.230Z,62.49
2022-09-03T05:32:15.176Z,62.80
2022-09-03T05:33:15.147Z,62.80
2022-09-03T05:34:16.516Z,62.60
2022-09-03T05:35:15.064Z,62.90
2022-09-03T05:36:15.025Z,63.20
2022-09-03T05:37:14.986Z,62.29
2022-09-03T05:38:14.946Z,62.19
2022-09-03T05:39:14.922Z,63.07
2022-09-03T05:40:14.873Z,62.37
2022-09-03T05:41:14.836Z,62.77
2022-09-03T05:42:14.796Z,63.07
2022-09-03T05:43:14.769Z,62.66
2022-09-03T05:44:14.720Z,61.96
2022-09-03T05:45:14.693Z,62.16
2022-09-03T05:46:14.703Z,63.07
2022-09-03T05:47:14.609Z,62.16
2022-09-03T05:48:14.569Z,62.37
2022-09-03T05:49:14.533Z,62.54
2022-09-03T05:50:14.506Z,62.44
2022-09-03T05:51:14.470Z,61.60
2022-09-03T05:52:14.419Z,60.71
2022-09-03T05:53:14.379Z,58.42
2022-09-03T05:54:14.347Z,54.97
2022-09-03T05:55:14.306Z,52.67
2022-09-03T05:56:14.264Z,51.54
2022-09-03T05:57:14.263Z,51.10
2022-09-03T05:58:14.196Z,49.45
2022-09-03T05:59:14.206Z,49.18
2022-09-03T06:00:14.118Z,47.37
2022-09-03T06:01:14.086Z,47.89
2022-09-03T06:02:14.187Z,47.84
2022-09-03T06:03:14.171Z,47.62
2022-09-03T06:04:13.972Z,46.80
2022-09-03T06:05:13.940Z,45.76
2022-09-03T06:06:13.914Z,46.64
2022-09-03T06:07:13.875Z,45.50
2022-09-03T06:08:13.832Z,44.83
2022-09-03T06:09:13.809Z,44.65
2022-09-03T06:10:13.754Z,45.56
2022-09-03T06:11:13.720Z,45.56
2022-09-03T06:12:13.682Z,46.38
2022-09-03T06:13:13.645Z,46.83
2022-09-03T06:14:13.613Z,46.88
2022-09-03T06:15:13.587Z,45.98
2022-09-03T06:16:13.583Z,47.08
2022-09-03T06:17:13.514Z,46.12
2022-09-03T06:18:13.474Z,46.37
2022-09-03T06:19:13.437Z,44.42
2022-09-03T06:20:13.403Z,41.59
2022-09-03T06:21:13.386Z,42.29
2022-09-03T06:22:13.331Z,41.57
2022-09-03T06:23:13.296Z,39.68
2022-09-03T06:24:13.260Z,40.56
2022-09-03T06:25:13.230Z,39.78
2022-09-03T06:26:13.192Z,40.66
2022-09-03T06:27:13.171Z,42.60
2022-09-03T06:28:13.123Z,42.92
2022-09-03T06:29:13.097Z,44.06
2022-09-03T06:30:13.052Z,40.74
2022-09-03T06:31:13.128Z,40.03
2022-09-03T06:32:12.988Z,41.09
2022-09-03T06:33:12.966Z,41.04
2022-09-03T06:34:12.919Z,38.07
2022-09-03T06:35:12.887Z,38.70
2022-09-03T06:36:12.852Z,39.60
2022-09-03T06:37:12.822Z,39.01
2022-09-03T06:38:12.783Z,38.02
2022-09-03T06:39:12.763Z,39.65
2022-09-03T06:40:12.716Z,39.89
2022-09-03T06:41:12.682Z,40.69
2022-09-03T06:42:12.649Z,40.69
2022-09-03T06:43:12.615Z,40.94
2022-09-03T06:44:12.584Z,40.53
2022-09-03T06:45:12.560Z,39.89
2022-09-03T06:46:12.618Z,38.60
2022-09-03T06:47:12.480Z,38.38
2022-09-03T06:48:12.449Z,37.49
2022-09-03T06:49:12.416Z,39.18
2022-09-03T06:50:12.386Z,38.62
2022-09-03T06:51:12.357Z,39.31
2022-09-03T06:52:12.327Z,38.81
2022-09-03T06:53:12.284Z,39.86
2022-09-03T06:54:12.245Z,39.86
2022-09-03T06:55:12.212Z,40.51
2022-09-03T06:56:12.180Z,40.61
2022-09-03T06:57:12.145Z,38.96
2022-09-03T06:58:12.136Z,40.48
2022-09-03T06:59:12.077Z,41.75
2022-09-03T07:00:12.047Z,44.05
2022-09-03T07:01:12.187Z,44.45
2022-09-03T07:02:12.064Z,43.63
2022-09-03T07:03:11.945Z,42.03
2022-09-03T07:04:11.933Z,44.46
2022-09-03T07:05:11.879Z,42.84
2022-09-03T07:06:11.846Z,42.54
2022-09-03T07:07:11.810Z,42.27
2022-09-03T07:08:11.783Z,44.23
2022-09-03T07:09:11.745Z,46.38
2022-09-03T07:10:11.720Z,45.98
2022-09-03T07:11:11.681Z,48.65
2022-09-03T07:12:11.647Z,46.22
2022-09-03T07:13:11.626Z,45.34
2022-09-03T07:14:11.578Z,43.35
2022-09-03T07:15:11.545Z,43.08
2022-09-03T07:16:11.583Z,44.24
2022-09-03T07:17:11.480Z,45.78
2022-09-03T07:18:11.448Z,45.23
2022-09-03T07:19:11.422Z,45.90
2022-09-03T07:20:11.378Z,44.96
2022-09-03T07:21:11.344Z,44.24
2022-09-03T07:22:11.313Z,42.82
2022-09-03T07:23:11.280Z,43.19
2022-09-03T07:24:11.245Z,42.82
2022-09-03T07:25:11.227Z,42.44
2022-09-03T07:26:11.179Z,44.81
2022-09-03T07:27:14.963Z,46.69
2022-09-03T07:28:11.116Z,45.30
2022-09-03T07:29:11.079Z,44.29
2022-09-03T07:30:11.046Z,45.78
2022-09-03T07:31:11.036Z,44.54
2022-09-03T07:32:11.009Z,43.21
2022-09-03T07:33:10.947Z,44.26
2022-09-03T07:34:10.916Z,42.46
2022-09-03T07:35:10.881Z,41.93
2022-09-03T07:36:10.850Z,43.18
2022-09-03T07:37:10.835Z,45.03
2022-09-03T07:38:10.785Z,46.06
2022-09-03T07:39:10.752Z,47.38
2022-09-03T07:40:10.719Z,47.23
2022-09-03T07:41:10.682Z,47.45
2022-09-03T07:42:10.658Z,47.17
2022-09-03T07:43:10.630Z,47.07
2022-09-03T07:44:10.587Z,48.36
2022-09-03T07:45:10.553Z,48.44
2022-09-03T07:46:10.552Z,48.02
2022-09-03T07:47:10.488Z,47.08
2022-09-03T07:48:10.455Z,47.99
2022-09-03T07:49:10.437Z,47.99
2022-09-03T07:50:10.388Z,48.19
2022-09-03T07:51:10.355Z,47.55
2022-09-03T07:52:11.988Z,46.31
2022-09-03T07:53:10.287Z,47.92
2022-09-03T07:54:10.270Z,48.54
2022-09-03T07:55:10.238Z,48.02
2022-09-03T07:56:10.192Z,49.91
2022-09-03T07:57:10.157Z,49.29
2022-09-03T07:58:10.125Z,48.52
2022-09-03T07:59:10.112Z,48.61
2022-09-03T08:00:10.097Z,48.69
2022-09-03T08:01:11.384Z,48.25
2022-09-03T08:02:10.153Z,45.82
2022-09-03T08:03:09.963Z,44.89
2022-09-03T08:04:10.154Z,45.08
2022-09-03T08:05:09.886Z,45.00
2022-09-03T08:06:09.861Z,46.09
2022-09-03T08:07:09.833Z,45.74
2022-09-03T08:08:09.796Z,47.03
2022-09-03T08:09:09.760Z,44.93
2022-09-03T08:10:09.727Z,46.24
2022-09-03T08:11:09.694Z,46.28
2022-09-03T08:12:09.673Z,47.89
2022-09-03T08:13:09.627Z,50.28
2022-09-03T08:14:09.595Z,49.33
2022-09-03T08:15:09.563Z,50.45
2022-09-03T08:16:09.594Z,49.76
2022-09-03T08:17:09.495Z,49.68
2022-09-03T08:18:09.476Z,51.15
2022-09-03T08:19:09.430Z,49.21
2022-09-03T08:20:09.397Z,46.48
2022-09-03T08:21:09.362Z,47.53
2022-09-03T08:22:09.330Z,47.03
2022-09-03T08:23:09.295Z,47.05
2022-09-03T08:24:09.275Z,46.83
2022-09-03T08:25:13.652Z,47.11
2022-09-03T08:26:09.197Z,47.73
2022-09-03T08:27:09.164Z,47.16
2022-09-03T08:28:09.131Z,46.93
2022-09-03T08:29:09.115Z,47.11
2022-09-03T08:30:09.069Z,45.90
2022-09-03T08:31:09.056Z,46.02
2022-09-03T08:32:09.000Z,49.07
2022-09-03T08:33:08.967Z,47.16
2022-09-03T08:34:08.934Z,47.87
2022-09-03T08:35:08.917Z,48.79
2022-09-03T08:36:08.867Z,49.49
2022-09-03T08:37:08.836Z,49.41
2022-09-03T08:38:10.065Z,50.52
2022-09-03T08:39:08.771Z,49.98
2022-09-03T08:40:08.739Z,49.58
2022-09-03T08:41:08.724Z,47.89
2022-09-03T08:42:08.686Z,47.10
2022-09-03T08:43:08.636Z,48.57
2022-09-03T08:44:08.604Z,49.41
2022-09-03T08:45:08.574Z,49.11
2022-09-03T08:46:08.590Z,51.22
2022-09-03T08:47:09.042Z,49.93
2022-09-03T08:48:08.485Z,49.76
2022-09-03T08:49:08.440Z,50.52
2022-09-03T08:50:08.409Z,49.98
2022-09-03T08:51:08.370Z,51.05
2022-09-03T08:52:08.342Z,50.18
2022-09-03T08:53:08.322Z,51.20
2022-09-03T08:54:08.272Z,51.42
2022-09-03T08:55:08.241Z,51.82
2022-09-03T08:56:08.208Z,51.70
2022-09-03T08:57:08.177Z,51.79
2022-09-03T08:58:08.141Z,51.22
2022-09-03T08:59:08.119Z,52.42
2022-09-03T09:00:08.072Z,51.75
2022-09-03T09:01:08.039Z,53.17
2022-09-03T09:02:08.105Z,52.47
2022-09-03T09:03:07.978Z,53.56
2022-09-03T09:04:07.975Z,53.24
2022-09-03T09:05:11.138Z,52.62
2022-09-03T09:06:07.881Z,51.12
2022-09-03T09:07:07.844Z,53.44
2022-09-03T09:08:07.804Z,51.62
2022-09-03T09:09:07.786Z,51.20
2022-09-03T09:10:07.741Z,52.97
2022-09-03T09:11:07.712Z,51.20
2022-09-03T09:12:07.667Z,51.89
2022-09-03T09:13:07.636Z,51.79
2022-09-03T09:14:07.617Z,49.71
2022-09-03T09:15:07.579Z,48.85
2022-09-03T09:16:07.573Z,47.59
2022-09-03T09:17:07.499Z,45.27
2022-09-03T09:18:07.467Z,47.07
2022-09-03T09:19:07.448Z,44.01
2022-09-03T09:20:07.403Z,44.46
2022-09-03T09:21:07.380Z,44.48
2022-09-03T09:22:07.335Z,44.85
2022-09-03T09:23:07.303Z,42.68
2022-09-03T09:24:07.270Z,44.50
2022-09-03T09:25:07.236Z,46.58
2022-09-03T09:26:07.208Z,44.92
2022-09-03T09:27:07.215Z,46.97
2022-09-03T09:28:07.142Z,44.85
2022-09-03T09:29:09.493Z,44.97
2022-09-03T09:30:07.076Z,45.68
2022-09-03T09:31:07.097Z,45.29
2022-09-03T09:32:07.016Z,44.97
2022-09-03T09:33:07.300Z,44.14
2022-09-03T09:34:06.982Z,44.68
2022-09-03T09:35:06.919Z,47.19
2022-09-03T09:36:07.174Z,48.55
2022-09-03T09:37:06.926Z,48.72
2022-09-03T09:38:06.836Z,49.14
2022-09-03T09:39:06.793Z,48.84
2022-09-03T09:40:06.761Z,51.28
2022-09-03T09:41:06.730Z,50.45
2022-09-03T09:42:06.696Z,49.38
2022-09-03T09:43:06.679Z,50.38
2022-09-03T09:44:06.635Z,51.65
2022-09-03T09:45:06.601Z,50.85
2022-09-03T09:46:07.527Z,49.84
2022-09-03T09:47:06.538Z,49.78
2022-09-03T09:48:16.181Z,51.60
2022-09-03T09:49:06.483Z,52.14
2022-09-03T09:50:06.441Z,50.93
2022-09-03T09:51:06.407Z,50.75
2022-09-03T09:52:06.373Z,51.30
2022-09-03T09:53:06.340Z,51.92
2022-09-03T09:54:06.343Z,52.39
2022-09-03T09:55:06.275Z,51.70
2022-09-03T09:56:06.245Z,53.04
2022-09-03T09:57:06.210Z,53.02
2022-09-03T09:58:07.436Z,52.12
2022-09-03T09:59:06.145Z,53.11
2022-09-03T10:00:06.128Z,53.21
2022-09-03T10:01:06.080Z,53.28
2022-09-03T10:02:06.047Z,54.31
2022-09-03T10:03:06.046Z,53.41
2022-09-03T10:04:05.982Z,53.49
2022-09-03T10:05:05.948Z,52.81
2022-09-03T10:06:05.924Z,53.41
2022-09-03T10:07:05.881Z,53.91
2022-09-03T10:08:05.851Z,53.41
2022-09-03T10:09:05.814Z,55.33
2022-09-03T10:10:05.782Z,54.36
2022-09-03T10:11:05.748Z,55.23
2022-09-03T10:12:05.728Z,54.18
2022-09-03T10:13:05.682Z,53.28
2022-09-03T10:14:05.649Z,53.19
2022-09-03T10:15:05.616Z,53.39
2022-09-03T10:16:05.624Z,53.88
2022-09-03T10:17:05.547Z,52.76
2022-09-03T10:18:05.527Z,52.86
2022-09-03T10:19:05.481Z,53.44
2022-09-03T10:20:05.556Z,52.04
2022-09-03T10:21:05.412Z,53.21
2022-09-03T10:22:05.382Z,53.91
2022-09-03T10:23:05.351Z,54.11
2022-09-03T10:24:07.203Z,55.60
2022-09-03T10:25:05.282Z,55.70
2022-09-03T10:26:05.254Z,53.91
2022-09-03T10:27:05.247Z,54.66
2022-09-03T10:28:05.186Z,56.02
2022-09-03T10:29:05.149Z,56.02
2022-09-03T10:30:05.134Z,56.42
2022-09-03T10:31:05.138Z,55.33
2022-09-03T10:32:05.048Z,55.95
2022-09-03T10:33:05.015Z,57.05
2022-09-03T10:34:04.982Z,56.25
2022-09-03T10:35:04.950Z,56.05
2022-09-03T10:36:04.927Z,56.45
2022-09-03T10:37:04.882Z,56.27
2022-09-03T10:38:04.850Z,57.57
2022-09-03T10:39:04.815Z,56.77
2022-09-03T10:40:04.849Z,58.00
2022-09-03T10:41:04.745Z,57.37
2022-09-03T10:42:04.727Z,57.17
2022-09-03T10:43:04.680Z,58.27
2022-09-03T10:44:04.647Z,58.29
2022-09-03T10:45:04.612Z,58.80
2022-09-03T10:46:04.630Z,58.00
2022-09-03T10:47:04.543Z,59.99
2022-09-03T10:48:04.521Z,59.09
2022-09-03T10:49:04.477Z,59.82
2022-09-03T10:50:04.444Z,59.92
2022-09-03T10:51:04.408Z,61.19
2022-09-03T10:52:04.373Z,60.42
2022-09-03T10:53:04.340Z,59.22
2022-09-03T10:54:04.317Z,60.22
2022-09-03T10:55:04.273Z,60.05
2022-09-03T10:56:04.237Z,61.91
2022-09-03T10:57:04.205Z,61.85
2022-09-03T10:58:04.171Z,62.37
2022-09-03T10:59:04.137Z,62.18
2022-09-03T11:00:04.137Z,62.41
2022-09-03T11:01:04.101Z,61.44
2022-09-03T11:02:04.034Z,62.31
2022-09-03T11:03:04.029Z,59.89
2022-09-03T11:04:03.984Z,61.22
2022-09-03T11:05:03.934Z,60.92
2022-09-03T11:06:03.935Z,61.74
2022-09-03T11:07:03.865Z,60.95
2022-09-03T11:08:03.828Z,62.27
2022-09-03T11:09:06.657Z,61.44
2022-09-03T11:10:03.760Z,60.62
2022-09-03T11:11:03.753Z,59.82
2022-09-03T11:12:03.706Z,60.99
2022-09-03T11:13:03.663Z,60.79
2022-09-03T11:14:03.625Z,60.52
2022-09-03T11:15:03.591Z,61.09
2022-09-03T11:16:03.885Z,60.19
2022-09-03T11:17:03.523Z,60.69
2022-09-03T11:18:03.502Z,60.19
2022-09-03T11:19:03.456Z,59.36
2022-09-03T11:20:03.419Z,58.67
2022-09-03T11:21:03.389Z,59.39
2022-09-03T11:22:03.350Z,59.72
2022-09-03T11:23:03.315Z,60.35
2022-09-03T11:24:03.306Z,61.71
2022-09-03T11:25:03.253Z,61.52
2022-09-03T11:26:03.217Z,60.39
2022-09-03T11:27:03.186Z,59.96
2022-09-03T11:28:03.148Z,59.77
2022-09-03T11:29:03.133Z,59.27
2022-09-03T11:30:03.143Z,59.27
2022-09-03T11:31:03.121Z,58.50
2022-09-03T11:32:03.026Z,60.89
2022-09-03T11:33:02.987Z,59.66
2022-09-03T11:34:02.966Z,60.03
2022-09-03T11:35:02.927Z,60.03
2022-09-03T11:36:02.881Z,59.04
2022-09-03T11:37:02.847Z,59.23
2022-09-03T11:38:02.813Z,59.11
2022-09-03T11:39:02.801Z,58.22
2022-09-03T11:40:02.797Z,58.61
2022-09-03T11:41:02.714Z,59.68
2022-09-03T11:42:02.678Z,58.71
2022-09-03T11:43:02.652Z,59.61
2022-09-03T11:44:04.702Z,60.33
2022-09-03T11:45:02.587Z,59.11
2022-09-03T11:46:02.592Z,58.61
2022-09-03T11:47:02.513Z,58.41
2022-09-03T11:48:02.471Z,58.18
2022-09-03T11:49:02.440Z,57.99
2022-09-03T11:50:02.407Z,57.46
2022-09-03T11:51:02.387Z,58.28
2022-09-03T11:52:02.352Z,58.48
2022-09-03T11:53:02.307Z,58.41
2022-09-03T11:54:02.287Z,58.44
2022-09-03T11:55:02.258Z,60.30
2022-09-03T11:56:02.316Z,58.11
2022-09-03T11:57:02.170Z,58.74
2022-09-03T11:58:02.136Z,58.94
2022-09-03T11:59:02.105Z,58.00
2022-09-03T12:00:02.092Z,59.59
2022-09-03T12:01:02.037Z,59.69
2022-09-03T12:02:02.077Z,59.27
2022-09-03T12:03:02.007Z,59.77
2022-09-03T12:04:01.937Z,59.53
2022-09-03T12:05:01.941Z,59.34
2022-09-03T12:06:01.871Z,59.64
2022-09-03T12:07:01.847Z,59.58
2022-09-03T12:08:06.775Z,57.71
2022-09-03T12:09:01.761Z,58.51
2022-09-03T12:10:02.625Z,58.84
2022-09-03T12:11:01.706Z,58.44
2022-09-03T12:12:01.663Z,58.34
2022-09-03T12:13:01.646Z,59.64
2022-09-03T12:14:01.595Z,59.81
2022-09-03T12:15:01.578Z,59.48
2022-09-03T12:16:01.601Z,58.16
2022-09-03T12:17:01.505Z,58.43
2022-09-03T12:18:01.479Z,59.47
2022-09-03T12:19:01.429Z,57.06
2022-09-03T12:20:01.394Z,56.30
2022-09-03T12:21:01.363Z,53.53
2022-09-03T12:22:01.335Z,53.63
2022-09-03T12:23:01.324Z,55.15
2022-09-03T12:24:01.279Z,56.04
2022-09-03T12:25:01.234Z,55.02
2022-09-03T12:26:01.216Z,55.64
2022-09-03T12:27:01.172Z,56.93
2022-09-03T12:28:01.142Z,55.51
2022-09-03T12:29:01.128Z,55.94
2022-09-03T12:30:01.094Z,56.90
2022-09-03T12:31:01.130Z,55.94
2022-09-03T12:32:01.009Z,55.94
2022-09-03T12:33:00.977Z,57.55
2022-09-03T12:34:00.962Z,57.15
2022-09-03T12:35:00.915Z,57.42
2022-09-03T12:36:01.057Z,58.02
2022-09-03T12:37:00.876Z,55.91
2022-09-03T12:38:05.980Z,56.80
2022-09-03T12:39:11.406Z,55.32
2022-09-03T12:40:05.526Z,56.97
2022-09-03T12:41:30.513Z,55.29
2022-09-03T12:42:00.697Z,55.58
2022-09-03T12:44:00.628Z,55.91
2022-09-03T12:45:00.612Z,56.13
2022-09-03T12:46:17.218Z,58.34
2022-09-03T12:48:00.546Z,57.65
2022-09-03T12:50:00.465Z,56.40
2022-09-03T12:51:47.571Z,57.69
2022-09-03T12:52:05.176Z,58.48
2022-09-03T12:53:00.346Z,56.01
2022-09-03T12:54:00.321Z,56.80
2022-09-03T12:55:00.288Z,59.01
2022-09-03T12:56:00.274Z,57.53
2022-09-03T12:57:00.229Z,58.19